createdAt,value
2022-11-27T00:00:06.016Z,96684.1
2022-11-27T00:01:08.492Z,96681.4
2022-11-27T00:02:11.206Z,96675.3
2022-11-27T00:03:14.316Z,96672.6
2022-11-27T00:04:17.257Z,96676.7
2022-11-27T00:05:19.930Z,96674.9
2022-11-27T00:06:21.942Z,96675.2
2022-11-27T00:07:24.798Z,96674.4
2022-11-27T00:08:27.105Z,96675.5
2022-11-27T00:09:29.288Z,96674.7
2022-11-27T00:10:31.501Z,96677.4
2022-11-27T00:11:34.026Z,96673.7
2022-11-27T00:12:36.263Z,96677.7
2022-11-27T00:13:38.469Z,96683.2
2022-11-27T00:14:40.444Z,96683.9
2022-11-27T00:15:42.853Z,96684.3
2022-11-27T00:16:44.934Z,96684.4
2022-11-27T00:17:47.422Z,96686.1
2022-11-27T00:18:49.912Z,96688.2
2022-11-27T00:19:52.394Z,96688.6
2022-11-27T00:20:54.892Z,96688
2022-11-27T00:21:57.084Z,96686.2
2022-11-27T00:22:59.302Z,96689.3
2022-11-27T00:24:01.854Z,96688.5
2022-11-27T00:25:04.329Z,96692.4
2022-11-27T00:26:06.228Z,96692.8
2022-11-27T00:27:08.693Z,96689.2
2022-11-27T00:28:11.218Z,96690.8
2022-11-27T00:29:13.695Z,96693.5
2022-11-27T00:30:15.985Z,96690.9
2022-11-27T00:31:18.901Z,96692.8
2022-11-27T00:32:21.025Z,96690.4
2022-11-27T00:33:23.505Z,96686
2022-11-27T00:34:25.463Z,96685.9
2022-11-27T00:35:27.665Z,96682.1
2022-11-27T00:36:30.152Z,96681
2022-11-27T00:37:32.658Z,96682.2
2022-11-27T00:39:40.115Z,96673.1
2022-11-27T00:40:42.601Z,96668.4
2022-11-27T00:41:44.798Z,96665.5
2022-11-27T00:42:47.025Z,96662.4
2022-11-27T00:43:49.528Z,96657.5
2022-11-27T00:44:51.752Z,96649.5
2022-11-27T00:45:54.137Z,96655.4
2022-11-27T00:46:57.050Z,96655.9
2022-11-27T00:47:59.407Z,96646.1
2022-11-27T00:49:01.900Z,96645.3
2022-11-27T00:50:04.421Z,96647.6
2022-11-27T00:51:06.612Z,96642.6
2022-11-27T00:52:08.256Z,96647
2022-11-27T00:53:10.734Z,96647.2
2022-11-27T00:54:13.217Z,96652.4
2022-11-27T00:55:15.408Z,96651.1
2022-11-27T00:56:17.602Z,96650.6
2022-11-27T00:57:20.097Z,96646.1
2022-11-27T00:58:22.306Z,96646
2022-11-27T00:59:24.606Z,96649.5
2022-11-27T01:00:27.129Z,96648.8
2022-11-27T01:01:30.077Z,96648.5
2022-11-27T01:02:33.016Z,96646.9
2022-11-27T01:03:35.560Z,96644
2022-11-27T01:04:38.589Z,96645.1
2022-11-27T01:05:41.677Z,96641.4
2022-11-27T01:06:43.888Z,96639.5
2022-11-27T01:07:46.328Z,96641.7
2022-11-27T01:08:48.728Z,96634.7
2022-11-27T01:09:51.230Z,96633.6
2022-11-27T01:11:58.460Z,96631.7
2022-11-27T01:13:00.994Z,96634.9
2022-11-27T01:14:03.468Z,96631.8
2022-11-27T01:15:05.988Z,96633.5
2022-11-27T01:16:08.906Z,96634
2022-11-27T01:17:11.552Z,96636
2022-11-27T01:18:14.080Z,96636.7
2022-11-27T01:19:16.291Z,96629.5
2022-11-27T01:20:18.212Z,96627.2
2022-11-27T01:21:20.428Z,96634.3
2022-11-27T01:22:22.333Z,96635.1
2022-11-27T01:23:24.821Z,96633.9
2022-11-27T01:24:27.289Z,96634.4
2022-11-27T01:25:29.774Z,96634.4
2022-11-27T01:26:31.955Z,96630.2
2022-11-27T01:27:34.452Z,96624.2
2022-11-27T01:28:36.936Z,96620.7
2022-11-27T01:29:39.433Z,96615.9
2022-11-27T01:30:41.653Z,96621.6
2022-11-27T01:31:44.361Z,96621.1
2022-11-27T01:32:46.766Z,96622.4
2022-11-27T01:33:49.021Z,96631
2022-11-27T01:34:51.200Z,96625.7
2022-11-27T01:35:58.143Z,96626.6
2022-11-27T01:37:00.637Z,96624.6
2022-11-27T01:38:02.954Z,96615.2
2022-11-27T01:39:04.878Z,96616.9
2022-11-27T01:40:06.815Z,96616.7
2022-11-27T01:41:09.033Z,96620.4
2022-11-27T01:42:11.518Z,96618.4
2022-11-27T01:43:14.006Z,96618.2
2022-11-27T01:44:16.186Z,96616.9
2022-11-27T01:45:18.667Z,96613.7
2022-11-27T01:46:21.447Z,96615.1
2022-11-27T01:47:24.112Z,96613
2022-11-27T01:48:26.641Z,96616.6
2022-11-27T01:49:29.226Z,96612.7
2022-11-27T01:50:31.445Z,96612.6
2022-11-27T01:51:33.665Z,96618.3
2022-11-27T01:52:36.147Z,96617.5
2022-11-27T01:53:38.651Z,96614.1
2022-11-27T01:54:42.280Z,96614.6
2022-11-27T01:55:44.979Z,96618
2022-11-27T01:56:47.473Z,96619.8
2022-11-27T01:57:49.679Z,96619.5
2022-11-27T01:58:51.878Z,96622.2
2022-11-27T01:59:53.798Z,96619.3
2022-11-27T02:00:56.280Z,96617.7
2022-11-27T02:01:58.977Z,96616.4
2022-11-27T02:03:01.722Z,96613.8
2022-11-27T02:04:03.864Z,96614.8
2022-11-27T02:05:06.125Z,96611
2022-11-27T02:06:08.606Z,96610.9
2022-11-27T02:07:11.356Z,96610.9
2022-11-27T02:08:13.666Z,96609.1
2022-11-27T02:09:16.160Z,96606.4
2022-11-27T02:10:18.638Z,96602.4
2022-11-27T02:11:21.107Z,96604.8
2022-11-27T02:12:23.324Z,96602.5
2022-11-27T02:13:25.801Z,96602.3
2022-11-27T02:14:28.034Z,96605.1
2022-11-27T02:15:30.246Z,96603.6
2022-11-27T02:16:33.016Z,96606
2022-11-27T02:17:35.597Z,96600.6
2022-11-27T02:18:38.085Z,96596.3
2022-11-27T02:19:40.259Z,96596.3
2022-11-27T02:20:42.743Z,96588.7
2022-11-27T02:21:45.224Z,96590.2
2022-11-27T02:22:47.717Z,96586
2022-11-27T02:23:50.230Z,96585.8
2022-11-27T02:24:52.730Z,96588.4
2022-11-27T02:25:54.910Z,96583.3
2022-11-27T02:26:57.140Z,96581.5
2022-11-27T02:27:59.347Z,96582.6
2022-11-27T02:29:01.554Z,96579.4
2022-11-27T02:30:04.057Z,96577.2
2022-11-27T02:31:06.438Z,96574.8
2022-11-27T02:32:09.034Z,96576.8
2022-11-27T02:33:10.947Z,96574.3
2022-11-27T02:34:13.438Z,96574.8
2022-11-27T02:35:15.922Z,96577.2
2022-11-27T02:36:18.409Z,96568.6
2022-11-27T02:37:20.894Z,96568.1
2022-11-27T02:38:23.107Z,96569.4
2022-11-27T02:39:25.578Z,96563
2022-11-27T02:40:28.061Z,96565.2
2022-11-27T02:41:30.273Z,96562
2022-11-27T02:42:33.219Z,96560.7
2022-11-27T02:43:35.812Z,96562.4
2022-11-27T02:44:39.306Z,96560.7
2022-11-27T02:45:41.927Z,96560.2
2022-11-27T02:46:44.766Z,96558.8
2022-11-27T02:47:47.412Z,96558.4
2022-11-27T02:48:49.634Z,96556.8
2022-11-27T02:49:52.139Z,96559
2022-11-27T02:50:54.354Z,96555.2
2022-11-27T02:51:56.562Z,96552.9
2022-11-27T02:52:58.746Z,96553.2
2022-11-27T02:54:01.220Z,96549.1
2022-11-27T02:55:03.150Z,96545
2022-11-27T02:56:05.621Z,96545.3
2022-11-27T02:57:07.549Z,96541.7
2022-11-27T02:58:10.500Z,96539.6
2022-11-27T02:59:12.840Z,96537.5
2022-11-27T03:00:15.033Z,96535.7
2022-11-27T03:01:17.732Z,96538.1
2022-11-27T03:02:20.771Z,96539.2
2022-11-27T03:03:23.134Z,96533.5
2022-11-27T03:04:25.067Z,96528.8
2022-11-27T03:05:26.986Z,96527.9
2022-11-27T03:06:29.175Z,96527.7
2022-11-27T03:07:31.942Z,96522.6
2022-11-27T03:08:34.243Z,96523.3
2022-11-27T03:09:36.727Z,96521.1
2022-11-27T03:10:38.346Z,96517.7
2022-11-27T03:11:40.832Z,96520.5
2022-11-27T03:12:43.036Z,96516
2022-11-27T03:13:45.986Z,96518.1
2022-11-27T03:14:48.581Z,96520.5
2022-11-27T03:15:51.210Z,96519.4
2022-11-27T03:16:53.540Z,96518.9
2022-11-27T03:17:55.618Z,96517.9
2022-11-27T03:18:58.112Z,96522.7
2022-11-27T03:20:00.327Z,96521.5
2022-11-27T03:21:02.814Z,96517.1
2022-11-27T03:22:05.006Z,96519.3
2022-11-27T03:23:07.213Z,96517.8
2022-11-27T03:24:09.406Z,96518.9
2022-11-27T03:25:11.906Z,96517.7
2022-11-27T03:26:14.082Z,96518.3
2022-11-27T03:27:16.353Z,96516.5
2022-11-27T03:28:18.357Z,96510.4
2022-11-27T03:30:27.263Z,96507.7
2022-11-27T03:31:30.130Z,96508.7
2022-11-27T03:32:32.414Z,96508.7
2022-11-27T03:33:34.632Z,96503.2
2022-11-27T03:34:36.839Z,96498.7
2022-11-27T03:35:39.254Z,96499.7
2022-11-27T03:36:41.172Z,96488.5
2022-11-27T03:37:43.666Z,96491.3
2022-11-27T03:38:46.141Z,96489.7
2022-11-27T03:39:48.624Z,96500.2
2022-11-27T03:40:50.823Z,96497
2022-11-27T03:41:53.312Z,96491.8
2022-11-27T03:42:55.790Z,96488.6
2022-11-27T03:43:58.004Z,96491.3
2022-11-27T03:45:00.697Z,96495
2022-11-27T03:46:02.983Z,96495.7
2022-11-27T03:47:05.689Z,96492.3
2022-11-27T03:48:08.367Z,96492
2022-11-27T03:49:10.265Z,96490.4
2022-11-27T03:50:12.747Z,96488.1
2022-11-27T03:51:14.942Z,96484.8
2022-11-27T03:52:17.421Z,96480.8
2022-11-27T03:53:19.340Z,96485
2022-11-27T03:54:21.561Z,96482
2022-11-27T03:55:24.035Z,96474.8
2022-11-27T03:56:25.701Z,96477.8
2022-11-27T03:57:28.177Z,96480.3
2022-11-27T03:58:30.655Z,96478.9
2022-11-27T03:59:32.853Z,96478.1
2022-11-27T04:00:35.566Z,96474.5
2022-11-27T04:01:38.544Z,96472.4
2022-11-27T04:02:41.193Z,96477.3
2022-11-27T04:03:43.455Z,96478.5
2022-11-27T04:04:46.013Z,96474.9
2022-11-27T04:05:48.203Z,96471.9
2022-11-27T04:06:50.602Z,96473.5
2022-11-27T04:07:53.240Z,96480.2
2022-11-27T04:08:55.291Z,96482
2022-11-27T04:09:57.764Z,96480.7
2022-11-27T04:11:00.241Z,96485.2
2022-11-27T04:12:02.721Z,96490.1
2022-11-27T04:13:04.917Z,96489.2
2022-11-27T04:14:06.835Z,96487.5
2022-11-27T04:15:08.760Z,96488
2022-11-27T04:16:11.798Z,96484
2022-11-27T04:17:14.389Z,96487.6
2022-11-27T04:18:17.002Z,96491.7
2022-11-27T04:19:19.487Z,96490.7
2022-11-27T04:20:21.958Z,96494.9
2022-11-27T04:21:24.440Z,96491.3
2022-11-27T04:22:26.377Z,96491.1
2022-11-27T04:23:28.862Z,96485.5
2022-11-27T04:24:31.073Z,96488.8
2022-11-27T04:25:33.010Z,96490.5
2022-11-27T04:26:35.217Z,96486.8
2022-11-27T04:27:37.151Z,96486.1
2022-11-27T04:28:39.357Z,96489.1
2022-11-27T04:29:41.833Z,96487.8
2022-11-27T04:30:44.308Z,96486.5
2022-11-27T04:31:47.154Z,96485.1
2022-11-27T04:32:49.677Z,96485.5
2022-11-27T04:33:52.257Z,96487
2022-11-27T04:34:54.756Z,96489.1
2022-11-27T04:35:57.256Z,96486.6
2022-11-27T04:36:59.742Z,96486.5
2022-11-27T04:38:01.671Z,96483.2
2022-11-27T04:39:03.873Z,96478.6
2022-11-27T04:40:06.073Z,96479.6
2022-11-27T04:41:08.562Z,96476.9
2022-11-27T04:42:10.750Z,96479.1
2022-11-27T04:43:12.973Z,96479.1
2022-11-27T04:44:15.169Z,96478
2022-11-27T04:45:17.425Z,96478.9
2022-11-27T04:46:19.907Z,96479.5
2022-11-27T04:47:22.149Z,96487.6
2022-11-27T04:48:24.859Z,96487.9
2022-11-27T04:49:27.459Z,96487.7
2022-11-27T04:50:29.929Z,96490.8
2022-11-27T04:51:32.411Z,96489.3
2022-11-27T04:52:34.904Z,96491.2
2022-11-27T04:53:37.104Z,96490.3
2022-11-27T04:54:40.941Z,96492.3
2022-11-27T04:55:43.377Z,96490.8
2022-11-27T04:56:45.856Z,96495.1
2022-11-27T04:57:48.080Z,96498.4
2022-11-27T04:58:50.555Z,96500.2
2022-11-27T04:59:53.061Z,96499.5
2022-11-27T05:00:55.620Z,96498
2022-11-27T05:01:58.030Z,96497.6
2022-11-27T05:04:05.957Z,96492.3
2022-11-27T05:05:08.584Z,96491.5
2022-11-27T05:06:10.808Z,96490.5
2022-11-27T05:07:13.068Z,96489.9
2022-11-27T05:08:15.460Z,96489.1
2022-11-27T05:09:17.939Z,96489.2
2022-11-27T05:10:20.159Z,96489.1
2022-11-27T05:11:22.346Z,96484.8
2022-11-27T05:12:24.825Z,96487.8
2022-11-27T05:13:27.299Z,96488.3
2022-11-27T05:14:29.904Z,96484.1
2022-11-27T05:15:32.091Z,96483.5
2022-11-27T05:16:34.907Z,96487.2
2022-11-27T05:17:37.206Z,96483
2022-11-27T05:18:39.684Z,96485
2022-11-27T05:19:42.703Z,96483.2
2022-11-27T05:20:45.285Z,96480
2022-11-27T05:21:47.765Z,96482.9
2022-11-27T05:22:50.240Z,96482.5
2022-11-27T05:23:52.590Z,96479.8
2022-11-27T05:24:55.059Z,96484.9
2022-11-27T05:25:56.710Z,96483.3
2022-11-27T05:26:58.949Z,96488.5
2022-11-27T05:28:01.430Z,96486.2
2022-11-27T05:29:03.658Z,96490
2022-11-27T05:30:05.566Z,96493.3
2022-11-27T05:31:08.373Z,96488.3
2022-11-27T05:32:10.977Z,96486.9
2022-11-27T05:33:13.455Z,96484
2022-11-27T05:34:15.660Z,96490.1
2022-11-27T05:35:18.619Z,96488.1
2022-11-27T05:36:20.949Z,96486.2
2022-11-27T05:37:23.161Z,96492.6
2022-11-27T05:38:25.366Z,96491.1
2022-11-27T05:39:27.575Z,96493.6
2022-11-27T05:40:30.066Z,96488.8
2022-11-27T05:41:32.534Z,96491.4
2022-11-27T05:42:34.462Z,96489.3
2022-11-27T05:43:36.383Z,96488.3
2022-11-27T05:44:40.030Z,96484.6
2022-11-27T05:45:42.746Z,96484.3
2022-11-27T05:46:45.673Z,96483
2022-11-27T05:47:48.012Z,96476.2
2022-11-27T05:48:50.224Z,96484.1
2022-11-27T05:49:52.418Z,96478.3
2022-11-27T05:53:06.302Z,96472.3
2022-11-27T05:54:08.939Z,96475.1
2022-11-27T05:55:11.410Z,96475.2
2022-11-27T05:56:13.891Z,96474.5
2022-11-27T05:57:16.371Z,96472
2022-11-27T05:58:18.574Z,96468.9
2022-11-27T05:59:21.051Z,96474
2022-11-27T06:00:23.537Z,96469.8
2022-11-27T06:01:26.005Z,96471.5
2022-11-27T06:03:33.501Z,96474
2022-11-27T06:04:35.836Z,96476.3
2022-11-27T06:05:38.034Z,96474
2022-11-27T06:06:40.635Z,96470.9
2022-11-27T06:07:43.484Z,96470.5
2022-11-27T06:08:46.423Z,96471.9
2022-11-27T06:09:49.015Z,96467.5
2022-11-27T06:10:51.233Z,96467.3
2022-11-27T06:11:53.724Z,96466.1
2022-11-27T06:12:56.222Z,96469.1
2022-11-27T06:13:58.414Z,96469.4
2022-11-27T06:15:00.901Z,96474.7
2022-11-27T06:16:03.529Z,96468.9
2022-11-27T06:17:05.853Z,96466.4
2022-11-27T06:18:08.319Z,96462.6
2022-11-27T06:19:10.814Z,96466.1
2022-11-27T06:20:13.287Z,96464.2
2022-11-27T06:21:15.478Z,96463.3
2022-11-27T06:22:17.788Z,96461.6
2022-11-27T06:23:20.265Z,96457.4
2022-11-27T06:24:23.075Z,96459.5
2022-11-27T06:25:25.394Z,96461.3
2022-11-27T06:26:27.868Z,96460
2022-11-27T06:27:30.057Z,96466.4
2022-11-27T06:28:32.259Z,96463.3
2022-11-27T06:29:34.454Z,96464.9
2022-11-27T06:30:36.655Z,96466.2
2022-11-27T06:31:39.217Z,96468.1
2022-11-27T06:32:41.753Z,96464.6
2022-11-27T06:33:43.957Z,96466.4
2022-11-27T06:34:46.428Z,96464.9
2022-11-27T06:35:48.981Z,96468.1
2022-11-27T06:36:51.461Z,96464.9
2022-11-27T06:37:53.774Z,96462.2
2022-11-27T06:38:56.242Z,96464.6
2022-11-27T06:39:59.072Z,96461.7
2022-11-27T06:41:01.112Z,96455.2
2022-11-27T06:42:03.319Z,96460.1
2022-11-27T06:43:05.522Z,96460.5
2022-11-27T06:44:08.022Z,96455.4
2022-11-27T06:45:10.504Z,96459.9
2022-11-27T06:46:13.425Z,96455.7
2022-11-27T06:47:16.080Z,96455.2
2022-11-27T06:48:18.279Z,96455.7
2022-11-27T06:49:20.474Z,96454.8
2022-11-27T06:50:22.701Z,96446.5
2022-11-27T06:51:25.195Z,96447.4
2022-11-27T06:52:27.687Z,96443.8
2022-11-27T06:53:29.997Z,96440.2
2022-11-27T06:54:31.936Z,96444.3
2022-11-27T06:55:34.769Z,96446
2022-11-27T06:56:37.107Z,96446.8
2022-11-27T06:57:39.706Z,96451.5
2022-11-27T06:58:41.624Z,96449.4
2022-11-27T06:59:43.829Z,96446.4
2022-11-27T07:00:46.297Z,96448.2
2022-11-27T07:01:48.852Z,96446.5
2022-11-27T07:02:51.185Z,96446.5
2022-11-27T07:03:53.385Z,96445.4
2022-11-27T07:04:55.592Z,96444.9
2022-11-27T07:05:57.794Z,96449
2022-11-27T07:07:00.264Z,96446.4
2022-11-27T07:08:03.068Z,96448.6
2022-11-27T07:09:05.831Z,96450.7
2022-11-27T07:10:08.049Z,96455.6
2022-11-27T07:11:10.879Z,96452.3
2022-11-27T07:12:13.479Z,96451
2022-11-27T07:13:15.666Z,96446.2
2022-11-27T07:14:17.868Z,96450.6
2022-11-27T07:15:19.777Z,96444.8
2022-11-27T07:16:22.596Z,96443.8
2022-11-27T07:17:25.245Z,96442
2022-11-27T07:18:27.740Z,96443.8
2022-11-27T07:19:30.227Z,96446.4
2022-11-27T07:20:32.444Z,96440.3
2022-11-27T07:21:34.927Z,96445.6
2022-11-27T07:22:37.442Z,96441.7
2022-11-27T07:23:39.916Z,96440.8
2022-11-27T07:24:43.515Z,96437.3
2022-11-27T07:25:45.764Z,96437
2022-11-27T07:26:48.433Z,96435.4
2022-11-27T07:27:51.051Z,96433.8
2022-11-27T07:28:53.534Z,96436.1
2022-11-27T07:29:55.729Z,96439.1
2022-11-27T07:30:57.962Z,96436.5
2022-11-27T07:32:00.412Z,96440.8
2022-11-27T07:33:02.211Z,96443
2022-11-27T07:35:09.108Z,96442.7
2022-11-27T07:36:11.340Z,96443.6
2022-11-27T07:37:13.539Z,96437.9
2022-11-27T07:38:15.203Z,96441.6
2022-11-27T07:40:22.519Z,96437.6
2022-11-27T07:43:38.317Z,96428.2
2022-11-27T07:44:42.455Z,96433.3
2022-11-27T07:45:45.282Z,96430.8
2022-11-27T07:46:47.858Z,96428.4
2022-11-27T07:47:50.345Z,96427.4
2022-11-27T07:48:52.554Z,96431.6
2022-11-27T07:49:54.745Z,96423.8
2022-11-27T07:50:57.232Z,96424.9
2022-11-27T07:51:59.712Z,96413.9
2022-11-27T07:53:01.626Z,96421.2
2022-11-27T07:54:03.825Z,96413.3
2022-11-27T07:55:06.035Z,96418.5
2022-11-27T07:56:08.616Z,96408
2022-11-27T07:57:11.117Z,96414.9
2022-11-27T07:58:13.329Z,96420.6
2022-11-27T08:00:21.860Z,96420.7
2022-11-27T08:01:24.594Z,96422.1
2022-11-27T08:02:27.162Z,96420.9
2022-11-27T08:03:29.375Z,96416.3
2022-11-27T08:04:31.647Z,96422.3
2022-11-27T08:05:33.935Z,96422.4
2022-11-27T08:06:36.418Z,96420.3
2022-11-27T08:07:39.322Z,96417.4
2022-11-27T08:08:41.681Z,96411.1
2022-11-27T08:09:43.640Z,96407.5
2022-11-27T08:10:45.570Z,96405.8
2022-11-27T08:11:48.183Z,96405.2
2022-11-27T08:12:50.669Z,96407.5
2022-11-27T08:13:52.878Z,96403.6
2022-11-27T08:14:55.495Z,96413.7
2022-11-27T08:15:58.448Z,96403.7
2022-11-27T08:17:01.121Z,96413.5
2022-11-27T08:18:03.640Z,96404.3
2022-11-27T08:19:05.600Z,96407
2022-11-27T08:20:08.088Z,96411.2
2022-11-27T08:21:10.560Z,96399
2022-11-27T08:22:12.774Z,96402.9
2022-11-27T08:23:15.052Z,96397.4
2022-11-27T08:24:16.990Z,96392.9
2022-11-27T08:25:19.475Z,96393
2022-11-27T08:26:21.961Z,96396.5
2022-11-27T08:27:24.583Z,96390
2022-11-27T08:28:26.807Z,96387.8
2022-11-27T08:30:34.371Z,96388.5
2022-11-27T08:31:37.380Z,96388.4
2022-11-27T08:32:39.910Z,96395.9
2022-11-27T08:33:42.418Z,96392.8
2022-11-27T08:34:44.960Z,96393.2
2022-11-27T08:35:47.422Z,96391.7
2022-11-27T08:36:50.284Z,96392
2022-11-27T08:37:52.768Z,96395.4
2022-11-27T08:38:55.244Z,96391.4
2022-11-27T08:39:57.458Z,96390.7
2022-11-27T08:40:59.664Z,96388.3
2022-11-27T08:42:02.156Z,96390.9
2022-11-27T08:43:04.231Z,96391.8
2022-11-27T08:45:11.440Z,96397.7
2022-11-27T08:46:14.492Z,96393.4
2022-11-27T08:47:17.087Z,96396
2022-11-27T08:48:19.426Z,96401.1
2022-11-27T08:49:21.057Z,96401.2
2022-11-27T08:50:23.251Z,96400.7
2022-11-27T08:51:25.720Z,96395.6
2022-11-27T08:52:27.645Z,96392.9
2022-11-27T08:53:29.846Z,96391.1
2022-11-27T08:54:32.055Z,96393.2
2022-11-27T08:55:34.272Z,96393.6
2022-11-27T08:56:36.777Z,96393.1
2022-11-27T08:57:38.694Z,96391.6
2022-11-27T08:58:41.359Z,96393.2
2022-11-27T08:59:43.868Z,96394.8
2022-11-27T09:00:46.277Z,96389.4
2022-11-27T09:01:48.728Z,96389.4
2022-11-27T09:02:51.456Z,96391.6
2022-11-27T09:03:54.376Z,96387.8
2022-11-27T09:04:57.076Z,96389.1
2022-11-27T09:05:58.995Z,96388.2
2022-11-27T09:07:00.962Z,96388.2
2022-11-27T09:08:02.960Z,96387.6
2022-11-27T09:09:05.191Z,96383.5
2022-11-27T09:10:07.409Z,96383.6
2022-11-27T09:11:09.906Z,96384.7
2022-11-27T09:12:12.374Z,96384.7
2022-11-27T09:13:14.597Z,96387.2
2022-11-27T09:14:17.200Z,96384.8
2022-11-27T09:15:19.706Z,96388.7
2022-11-27T09:16:22.528Z,96388.5
2022-11-27T09:17:25.259Z,96384
2022-11-27T09:18:27.980Z,96389.1
2022-11-27T09:19:30.577Z,96390.4
2022-11-27T09:20:33.056Z,96384.1
2022-11-27T09:21:35.560Z,96381.3
2022-11-27T09:22:38.048Z,96382.8
2022-11-27T09:23:40.567Z,96386.7
2022-11-27T09:24:43.980Z,96382
2022-11-27T09:25:45.912Z,96383
2022-11-27T09:26:48.114Z,96380.4
2022-11-27T09:27:50.602Z,96379.3
2022-11-27T09:28:53.088Z,96380.6
2022-11-27T09:29:55.129Z,96374.3
2022-11-27T09:30:57.411Z,96375.6
2022-11-27T09:31:59.808Z,96373.9
2022-11-27T09:33:02.618Z,96374.9
2022-11-27T09:34:05.343Z,96370.4
2022-11-27T09:35:07.860Z,96372.6
2022-11-27T09:36:10.148Z,96366.1
2022-11-27T09:37:12.354Z,96368.5
2022-11-27T09:38:14.857Z,96367.2
2022-11-27T09:39:17.149Z,96362.5
2022-11-27T09:40:19.412Z,96361
2022-11-27T09:41:21.621Z,96359.9
2022-11-27T09:42:23.541Z,96357.4
2022-11-27T09:43:25.472Z,96354.7
2022-11-27T09:44:27.410Z,96355.7
2022-11-27T09:46:34.722Z,96352
2022-11-27T09:48:42.303Z,96344.8
2022-11-27T09:49:45.020Z,96342
2022-11-27T09:50:47.600Z,96339.5
2022-11-27T09:51:49.791Z,96337.7
2022-11-27T09:52:51.995Z,96337.6
2022-11-27T09:53:53.925Z,96333.5
2022-11-27T09:54:56.431Z,96332.7
2022-11-27T09:55:58.087Z,96329.7
2022-11-27T09:57:00.001Z,96329.8
2022-11-27T09:58:02.488Z,96329.1
2022-11-27T09:59:04.979Z,96327.7
2022-11-27T10:00:07.183Z,96324.4
2022-11-27T10:01:09.855Z,96323.3
2022-11-27T10:02:12.884Z,96322.9
2022-11-27T10:03:15.496Z,96314.5
2022-11-27T10:04:17.911Z,96314.8
2022-11-27T10:05:22.430Z,96310.9
2022-11-27T10:06:25.850Z,96312
2022-11-27T10:07:28.568Z,96312.2
2022-11-27T10:08:31.193Z,96314.9
2022-11-27T10:09:33.702Z,96315
2022-11-27T10:10:36.193Z,96311.2
2022-11-27T10:11:38.382Z,96314
2022-11-27T10:12:40.297Z,96311.2
2022-11-27T10:13:42.521Z,96311.9
2022-11-27T10:14:45.192Z,96304.6
2022-11-27T10:15:47.661Z,96307.2
2022-11-27T10:16:50.531Z,96306.6
2022-11-27T10:17:52.436Z,96302.6
2022-11-27T10:18:54.916Z,96303
2022-11-27T10:19:57.509Z,96300.2
2022-11-27T10:21:00.242Z,96296.5
2022-11-27T10:22:02.280Z,96290.8
2022-11-27T10:23:04.793Z,96285.1
2022-11-27T10:24:07.009Z,96287
2022-11-27T10:25:09.236Z,96282.8
2022-11-27T10:26:11.711Z,96282.1
2022-11-27T10:27:13.648Z,96278.8
2022-11-27T10:28:16.137Z,96282.4
2022-11-27T10:29:18.616Z,96275.7
2022-11-27T10:30:20.847Z,96274.9
2022-11-27T10:31:23.597Z,96268.9
2022-11-27T10:33:31.311Z,96265.8
2022-11-27T10:34:33.251Z,96268.4
2022-11-27T10:35:35.860Z,96269.8
2022-11-27T10:36:38.298Z,96268.1
2022-11-27T10:37:40.608Z,96268
2022-11-27T10:38:43.179Z,96268.3
2022-11-27T10:39:45.467Z,96269.7
2022-11-27T10:40:47.706Z,96272.1
2022-11-27T10:41:51.585Z,96277.3
2022-11-27T10:42:53.820Z,96269.5
2022-11-27T10:43:56.081Z,96268.9
2022-11-27T10:44:58.299Z,96263.7
2022-11-27T10:46:01.115Z,96262.7
2022-11-27T10:47:03.435Z,96264.6
2022-11-27T10:48:05.978Z,96261.5
2022-11-27T10:49:08.595Z,96262.3
2022-11-27T10:50:10.811Z,96259
2022-11-27T10:51:12.889Z,96263.2
2022-11-27T10:52:15.597Z,96258.3
2022-11-27T10:53:18.201Z,96259
2022-11-27T10:54:20.386Z,96258.6
2022-11-27T10:55:22.894Z,96262.5
2022-11-27T10:56:25.121Z,96262
2022-11-27T10:57:27.323Z,96259.2
2022-11-27T10:58:29.527Z,96261.1
2022-11-27T11:00:37.003Z,96252.6
2022-11-27T11:01:39.818Z,96250.9
2022-11-27T11:02:42.849Z,96250.1
2022-11-27T11:03:45.449Z,96247.6
2022-11-27T11:06:57.734Z,96242.8
2022-11-27T11:08:00.854Z,96243.9
2022-11-27T11:09:03.223Z,96246.9
2022-11-27T11:10:05.726Z,96244.1
2022-11-27T11:11:08.197Z,96248.3
2022-11-27T11:12:10.132Z,96249.3
2022-11-27T11:13:12.066Z,96254.3
2022-11-27T11:14:14.601Z,96252.6
2022-11-27T11:15:16.518Z,96253.3
2022-11-27T11:17:24.359Z,96254.1
2022-11-27T11:18:27.146Z,96255.3
2022-11-27T11:19:29.347Z,96256.1
2022-11-27T11:20:31.946Z,96258.2
2022-11-27T11:21:34.142Z,96251.8
2022-11-27T11:22:36.755Z,96253.3
2022-11-27T11:23:39.468Z,96253
2022-11-27T11:24:43.222Z,96250.3
2022-11-27T11:25:45.761Z,96246.9
2022-11-27T11:26:47.975Z,96242.6
2022-11-27T11:27:49.913Z,96246.5
2022-11-27T11:28:51.841Z,96237.9
2022-11-27T11:29:54.028Z,96237.4
2022-11-27T11:30:56.514Z,96242.9
2022-11-27T11:31:59.027Z,96239.6
2022-11-27T11:33:01.648Z,96241.6
2022-11-27T11:34:04.159Z,96240.7
2022-11-27T11:35:06.377Z,96239.8
2022-11-27T11:36:08.698Z,96241.6
2022-11-27T11:37:11.219Z,96239.8
2022-11-27T11:38:13.845Z,96239
2022-11-27T11:39:16.281Z,96238.7
2022-11-27T11:40:18.958Z,96237.4
2022-11-27T11:41:21.263Z,96239.1
2022-11-27T11:42:23.171Z,96233.5
2022-11-27T11:43:25.656Z,96232.5
2022-11-27T11:44:27.855Z,96233
2022-11-27T11:46:35.485Z,96235
2022-11-27T11:47:37.874Z,96236.1
2022-11-27T11:48:40.158Z,96232.2
2022-11-27T11:49:42.655Z,96239.7
2022-11-27T11:50:45.137Z,96238.4
2022-11-27T11:51:47.182Z,96240.3
2022-11-27T11:52:49.098Z,96242.4
2022-11-27T11:53:51.700Z,96237.5
2022-11-27T11:54:53.966Z,96240.1
2022-11-27T11:55:56.576Z,96235.7
2022-11-27T11:56:58.787Z,96238.8
2022-11-27T11:58:01.420Z,96235
2022-11-27T11:59:03.072Z,96236.5
2022-11-27T12:00:05.293Z,96235
2022-11-27T12:02:13.060Z,96237.8
2022-11-27T12:03:15.654Z,96235.3
2022-11-27T12:04:18.382Z,96233.6
2022-11-27T12:05:20.719Z,96228.5
2022-11-27T12:06:22.924Z,96228.5
2022-11-27T12:07:25.725Z,96225.7
2022-11-27T12:08:27.870Z,96228.1
2022-11-27T12:09:30.512Z,96224.9
2022-11-27T12:10:32.956Z,96222.5
2022-11-27T12:11:35.563Z,96218.4
2022-11-27T12:12:38.056Z,96217.6
2022-11-27T12:13:40.297Z,96220.7
2022-11-27T12:14:44.004Z,96216.8
2022-11-27T12:15:46.485Z,96215.6
2022-11-27T12:16:49.320Z,96213.8
2022-11-27T12:17:51.632Z,96209.6
2022-11-27T12:18:54.111Z,96209.1
2022-11-27T12:19:56.057Z,96210.2
2022-11-27T12:20:58.529Z,96211.2
2022-11-27T12:22:01.029Z,96209.2
2022-11-27T12:23:03.061Z,96210.8
2022-11-27T12:24:05.354Z,96207
2022-11-27T12:25:07.953Z,96209.3
2022-11-27T12:26:10.372Z,96203.4
2022-11-27T12:27:12.694Z,96204.4
2022-11-27T12:28:14.899Z,96198.1
2022-11-27T12:29:17.108Z,96200.1
2022-11-27T12:30:19.612Z,96202
2022-11-27T12:31:21.720Z,96197.9
2022-11-27T12:32:23.453Z,96192.9
2022-11-27T12:33:25.383Z,96190
2022-11-27T12:34:27.873Z,96190.9
2022-11-27T12:35:30.070Z,96190.2
2022-11-27T12:36:32.579Z,96190.1
2022-11-27T12:37:34.772Z,96189.9
2022-11-27T12:38:37.109Z,96189.4
2022-11-27T12:39:39.603Z,96191
2022-11-27T12:40:42.203Z,96189
2022-11-27T12:41:44.628Z,96191.6
2022-11-27T12:42:47.218Z,96190.3
2022-11-27T12:43:49.700Z,96191.6
2022-11-27T12:44:51.924Z,96182.8
2022-11-27T12:45:54.737Z,96187.1
2022-11-27T12:46:57.166Z,96181.9
2022-11-27T12:47:58.836Z,96183.4
2022-11-27T12:49:01.322Z,96170.9
2022-11-27T12:50:03.816Z,96168.7
2022-11-27T12:51:05.727Z,96167.5
2022-11-27T12:52:07.938Z,96162.7
2022-11-27T12:53:10.425Z,96161.4
2022-11-27T12:54:13.033Z,96160.7
2022-11-27T12:55:15.251Z,96158.8
2022-11-27T12:56:17.867Z,96156.1
2022-11-27T12:58:26.552Z,96158
2022-11-27T12:59:33.213Z,96159
2022-11-27T13:00:35.576Z,96160.8
2022-11-27T13:01:38.424Z,96156.2
2022-11-27T13:02:40.950Z,96156.6
2022-11-27T13:03:43.166Z,96154.7
2022-11-27T13:04:45.504Z,96154.1
2022-11-27T13:05:47.703Z,96150.4